Fonte Boa, Brazil
Current Conditions -  °F | °C
As of 5:00 PM on Saturday 25 Oct 2014 (Local Time) from SBUY Reporting Station
Few Clouds Few Clouds  
Wind Chill: 82°   Ceiling: Unl
Heat Index: 88°   Visibility: 6mi
Dew Point: 73°   Wind: 0mph
Humidity: 74%   Direction: NA
Pressure: 29.68"   Gusts: NA
Location:  2.53°S, 66.02°W
Report Text: SBUY 252100Z 00000KT 9999 FEW010 28/23 Q1005
Loading
Personal Weather Stations






























Interactive Weather Map
Tropical Storm Tracking
New forecast layout! Learn more

10-Day Weather Forecast

Advertisements
Track Severe Weather on mobile